sensor_id;sensor_type;location;lat;lon;timestamp;temperature;humidity
21035;DHT22;10676;50.848;3.272;2023-05-23T00:01:53;13.90;99.90
21035;DHT22;10676;50.848;3.272;2023-05-23T00:04:19;13.90;99.90
21035;DHT22;10676;50.848;3.272;2023-05-23T00:06:45;13.90;99.90
21035;DHT22;10676;50.848;3.272;2023-05-23T00:09:15;14.00;99.90
21035;DHT22;10676;50.848;3.272;2023-05-23T00:11:41;14.00;99.90
21035;DHT22;10676;50.848;3.272;2023-05-23T00:14:13;14.10;99.90
21035;DHT22;10676;50.848;3.272;2023-05-23T00:16:40;14.10;99.90
21035;DHT22;10676;50.848;3.272;2023-05-23T00:19:07;14.10;99.90
21035;DHT22;10676;50.848;3.272;2023-05-23T00:21:33;14.10;99.90
21035;DHT22;10676;50.848;3.272;2023-05-23T00:23:59;14.10;99.90
21035;DHT22;10676;50.848;3.272;2023-05-23T00:26:27;14.10;99.90
21035;DHT22;10676;50.848;3.272;2023-05-23T00:28:54;14.10;99.90
21035;DHT22;10676;50.848;3.272;2023-05-23T00:31:21;14.20;99.90
21035;DHT22;10676;50.848;3.272;2023-05-23T00:33:47;14.20;99.90
21035;DHT22;10676;50.848;3.272;2023-05-23T00:36:12;14.20;99.90
21035;DHT22;10676;50.848;3.272;2023-05-23T00:38:38;14.20;99.90
21035;DHT22;10676;50.848;3.272;2023-05-23T00:41:04;14.30;99.90
21035;DHT22;10676;50.848;3.272;2023-05-23T00:43:30;14.20;99.90
21035;DHT22;10676;50.848;3.272;2023-05-23T00:45:56;14.30;99.90
21035;DHT22;10676;50.848;3.272;2023-05-23T00:48:24;14.30;99.90
21035;DHT22;10676;50.848;3.272;2023-05-23T00:50:50;14.30;99.90
21035;DHT22;10676;50.848;3.272;2023-05-23T00:53:16;14.30;99.90
21035;DHT22;10676;50.848;3.272;2023-05-23T00:55:43;14.40;99.90
21035;DHT22;10676;50.848;3.272;2023-05-23T00:58:09;14.40;99.90
21035;DHT22;10676;50.848;3.272;2023-05-23T01:00:35;14.40;99.90
21035;DHT22;10676;50.848;3.272;2023-05-23T01:03:03;14.40;99.90
21035;DHT22;10676;50.848;3.272;2023-05-23T01:05:29;14.40;99.90
21035;DHT22;10676;50.848;3.272;2023-05-23T01:07:55;14.30;99.90
21035;DHT22;10676;50.848;3.272;2023-05-23T01:10:28;14.40;99.90
21035;DHT22;10676;50.848;3.272;2023-05-23T01:13:16;14.30;99.90
21035;DHT22;10676;50.848;3.272;2023-05-23T01:15:57;14.30;99.90
21035;DHT22;10676;50.848;3.272;2023-05-23T01:18:37;14.30;99.90
21035;DHT22;10676;50.848;3.272;2023-05-23T01:21:09;14.30;99.90
21035;DHT22;10676;50.848;3.272;2023-05-23T01:29:33;14.30;99.90
21035;DHT22;10676;50.848;3.272;2023-05-23T01:32:01;14.30;99.90
21035;DHT22;10676;50.848;3.272;2023-05-23T01:34:29;14.30;99.90
21035;DHT22;10676;50.848;3.272;2023-05-23T01:36:56;14.30;99.90
21035;DHT22;10676;50.848;3.272;2023-05-23T01:39:22;14.30;99.90
21035;DHT22;10676;50.848;3.272;2023-05-23T01:41:49;14.30;99.90
21035;DHT22;10676;50.848;3.272;2023-05-23T01:44:15;14.30;99.90
21035;DHT22;10676;50.848;3.272;2023-05-23T01:46:41;14.30;99.90
21035;DHT22;10676;50.848;3.272;2023-05-23T01:49:11;14.40;99.90
21035;DHT22;10676;50.848;3.272;2023-05-23T01:51:38;14.40;99.90
21035;DHT22;10676;50.848;3.272;2023-05-23T01:54:04;14.40;99.90
21035;DHT22;10676;50.848;3.272;2023-05-23T01:56:30;14.40;99.90
21035;DHT22;10676;50.848;3.272;2023-05-23T01:58:56;14.40;99.90
21035;DHT22;10676;50.848;3.272;2023-05-23T02:01:22;14.40;99.90
21035;DHT22;10676;50.848;3.272;2023-05-23T02:03:48;14.40;99.90
21035;DHT22;10676;50.848;3.272;2023-05-23T02:06:14;14.40;99.90
21035;DHT22;10676;50.848;3.272;2023-05-23T02:08:39;14.50;99.90
21035;DHT22;10676;50.848;3.272;2023-05-23T02:11:05;14.50;99.90
21035;DHT22;10676;50.848;3.272;2023-05-23T02:13:33;14.50;99.90
21035;DHT22;10676;50.848;3.272;2023-05-23T02:15:59;14.60;99.90
21035;DHT22;10676;50.848;3.272;2023-05-23T02:18:25;14.60;99.90
21035;DHT22;10676;50.848;3.272;2023-05-23T02:20:50;14.60;99.90
21035;DHT22;10676;50.848;3.272;2023-05-23T02:23:16;14.60;99.90
21035;DHT22;10676;50.848;3.272;2023-05-23T02:25:42;14.60;99.90
21035;DHT22;10676;50.848;3.272;2023-05-23T02:28:08;14.60;99.90
21035;DHT22;10676;50.848;3.272;2023-05-23T02:30:33;14.70;99.90
21035;DHT22;10676;50.848;3.272;2023-05-23T02:33:04;14.70;99.90
21035;DHT22;10676;50.848;3.272;2023-05-23T02:35:30;14.60;99.90
21035;DHT22;10676;50.848;3.272;2023-05-23T02:37:56;14.70;99.90
21035;DHT22;10676;50.848;3.272;2023-05-23T02:40:22;14.70;99.90
21035;DHT22;10676;50.848;3.272;2023-05-23T02:42:47;14.70;99.90
21035;DHT22;10676;50.848;3.272;2023-05-23T02:45:15;14.70;99.90
21035;DHT22;10676;50.848;3.272;2023-05-23T02:47:41;14.70;99.90
21035;DHT22;10676;50.848;3.272;2023-05-23T02:50:07;14.70;99.90
21035;DHT22;10676;50.848;3.272;2023-05-23T02:52:32;14.70;99.90
21035;DHT22;10676;50.848;3.272;2023-05-23T02:54:58;14.70;99.90
21035;DHT22;10676;50.848;3.272;2023-05-23T02:57:24;14.70;99.90
21035;DHT22;10676;50.848;3.272;2023-05-23T02:59:50;14.70;99.90
21035;DHT22;10676;50.848;3.272;2023-05-23T03:02:16;14.70;99.90
21035;DHT22;10676;50.848;3.272;2023-05-23T03:04:41;14.70;99.90
21035;DHT22;10676;50.848;3.272;2023-05-23T03:07:07;14.70;99.90
21035;DHT22;10676;50.848;3.272;2023-05-23T03:09:35;14.70;99.90
21035;DHT22;10676;50.848;3.272;2023-05-23T03:12:01;14.70;99.90
21035;DHT22;10676;50.848;3.272;2023-05-23T03:14:26;14.70;99.90
21035;DHT22;10676;50.848;3.272;2023-05-23T03:16:52;14.70;99.90
21035;DHT22;10676;50.848;3.272;2023-05-23T03:19:18;14.70;99.90
21035;DHT22;10676;50.848;3.272;2023-05-23T03:21:43;14.70;99.90
21035;DHT22;10676;50.848;3.272;2023-05-23T03:24:09;14.70;99.90
21035;DHT22;10676;50.848;3.272;2023-05-23T03:26:35;14.70;99.90
21035;DHT22;10676;50.848;3.272;2023-05-23T03:29:00;14.70;99.90
21035;DHT22;10676;50.848;3.272;2023-05-23T03:31:26;14.70;99.90
21035;DHT22;10676;50.848;3.272;2023-05-23T03:33:52;14.70;99.90
21035;DHT22;10676;50.848;3.272;2023-05-23T03:36:18;14.70;99.90
21035;DHT22;10676;50.848;3.272;2023-05-23T03:38:44;14.70;99.90
21035;DHT22;10676;50.848;3.272;2023-05-23T03:41:09;14.70;99.90
21035;DHT22;10676;50.848;3.272;2023-05-23T03:43:35;14.70;99.90
21035;DHT22;10676;50.848;3.272;2023-05-23T03:46:01;14.70;99.90
21035;DHT22;10676;50.848;3.272;2023-05-23T03:48:27;14.70;99.90
21035;DHT22;10676;50.848;3.272;2023-05-23T03:50:54;14.60;99.90
21035;DHT22;10676;50.848;3.272;2023-05-23T03:53:20;14.60;99.90
21035;DHT22;10676;50.848;3.272;2023-05-23T03:55:45;14.60;99.90
21035;DHT22;10676;50.848;3.272;2023-05-23T03:58:11;14.60;99.90
21035;DHT22;10676;50.848;3.272;2023-05-23T04:00:37;14.60;99.90
21035;DHT22;10676;50.848;3.272;2023-05-23T04:03:03;14.50;99.90
21035;DHT22;10676;50.848;3.272;2023-05-23T04:05:29;14.50;99.90
21035;DHT22;10676;50.848;3.272;2023-05-23T04:07:54;14.60;99.90
21035;DHT22;10676;50.848;3.272;2023-05-23T04:10:21;14.60;99.90
21035;DHT22;10676;50.848;3.272;2023-05-23T04:12:47;14.50;99.90
21035;DHT22;10676;50.848;3.272;2023-05-23T04:15:13;14.50;99.90
21035;DHT22;10676;50.848;3.272;2023-05-23T04:17:38;14.50;99.90
21035;DHT22;10676;50.848;3.272;2023-05-23T04:20:08;14.60;99.90
21035;DHT22;10676;50.848;3.272;2023-05-23T04:22:37;14.60;99.90
21035;DHT22;10676;50.848;3.272;2023-05-23T04:25:03;14.50;99.90
21035;DHT22;10676;50.848;3.272;2023-05-23T04:27:29;14.50;99.90
21035;DHT22;10676;50.848;3.272;2023-05-23T04:29:55;14.60;99.90
21035;DHT22;10676;50.848;3.272;2023-05-23T04:32:23;14.50;99.90
21035;DHT22;10676;50.848;3.272;2023-05-23T04:34:49;14.50;99.90
21035;DHT22;10676;50.848;3.272;2023-05-23T04:37:15;14.50;99.90
21035;DHT22;10676;50.848;3.272;2023-05-23T04:39:41;14.50;99.90
21035;DHT22;10676;50.848;3.272;2023-05-23T04:42:07;14.50;99.90
21035;DHT22;10676;50.848;3.272;2023-05-23T04:44:33;14.50;99.90
21035;DHT22;10676;50.848;3.272;2023-05-23T04:47:01;14.50;99.90
21035;DHT22;10676;50.848;3.272;2023-05-23T04:49:27;14.50;99.90
21035;DHT22;10676;50.848;3.272;2023-05-23T04:51:53;14.50;99.90
21035;DHT22;10676;50.848;3.272;2023-05-23T04:54:19;14.50;99.90
21035;DHT22;10676;50.848;3.272;2023-05-23T04:56:45;14.50;99.90
21035;DHT22;10676;50.848;3.272;2023-05-23T04:59:11;14.50;99.90
21035;DHT22;10676;50.848;3.272;2023-05-23T05:01:37;14.50;99.90
21035;DHT22;10676;50.848;3.272;2023-05-23T05:04:06;14.60;99.90
21035;DHT22;10676;50.848;3.272;2023-05-23T05:06:31;14.60;99.90
21035;DHT22;10676;50.848;3.272;2023-05-23T05:08:58;14.60;99.90
21035;DHT22;10676;50.848;3.272;2023-05-23T05:11:24;14.60;99.90
21035;DHT22;10676;50.848;3.272;2023-05-23T05:13:51;14.60;99.90
21035;DHT22;10676;50.848;3.272;2023-05-23T05:16:17;14.60;99.90
21035;DHT22;10676;50.848;3.272;2023-05-23T05:18:42;14.50;99.90
21035;DHT22;10676;50.848;3.272;2023-05-23T05:21:08;14.60;99.90
21035;DHT22;10676;50.848;3.272;2023-05-23T05:23:35;14.60;99.90
21035;DHT22;10676;50.848;3.272;2023-05-23T05:26:00;14.60;99.90
21035;DHT22;10676;50.848;3.272;2023-05-23T05:28:27;14.60;99.90
21035;DHT22;10676;50.848;3.272;2023-05-23T05:30:53;14.60;99.90
21035;DHT22;10676;50.848;3.272;2023-05-23T05:33:19;14.60;99.90
21035;DHT22;10676;50.848;3.272;2023-05-23T05:35:48;14.60;99.90
21035;DHT22;10676;50.848;3.272;2023-05-23T05:38:14;14.60;99.90
21035;DHT22;10676;50.848;3.272;2023-05-23T05:40:39;14.60;99.90
21035;DHT22;10676;50.848;3.272;2023-05-23T05:43:05;14.60;99.90
21035;DHT22;10676;50.848;3.272;2023-05-23T05:45:31;14.60;99.90
21035;DHT22;10676;50.848;3.272;2023-05-23T05:47:57;14.70;99.90
21035;DHT22;10676;50.848;3.272;2023-05-23T05:50:23;14.70;99.90
21035;DHT22;10676;50.848;3.272;2023-05-23T05:52:49;14.70;99.90
21035;DHT22;10676;50.848;3.272;2023-05-23T05:55:14;14.80;99.90
21035;DHT22;10676;50.848;3.272;2023-05-23T05:57:40;14.90;99.90
21035;DHT22;10676;50.848;3.272;2023-05-23T06:00:11;14.90;99.90
21035;DHT22;10676;50.848;3.272;2023-05-23T06:02:38;15.00;99.90
21035;DHT22;10676;50.848;3.272;2023-05-23T06:05:05;15.10;99.90
21035;DHT22;10676;50.848;3.272;2023-05-23T06:07:33;15.20;99.90
21035;DHT22;10676;50.848;3.272;2023-05-23T06:09:58;15.30;99.90
21035;DHT22;10676;50.848;3.272;2023-05-23T06:12:24;15.40;99.90
21035;DHT22;10676;50.848;3.272;2023-05-23T06:14:50;15.60;99.90
21035;DHT22;10676;50.848;3.272;2023-05-23T06:17:15;15.70;99.90
21035;DHT22;10676;50.848;3.272;2023-05-23T06:19:41;15.90;99.90
21035;DHT22;10676;50.848;3.272;2023-05-23T06:22:07;16.20;99.90
21035;DHT22;10676;50.848;3.272;2023-05-23T06:24:32;16.40;99.90
21035;DHT22;10676;50.848;3.272;2023-05-23T06:26:58;16.40;99.90
21035;DHT22;10676;50.848;3.272;2023-05-23T06:29:24;16.40;99.90
21035;DHT22;10676;50.848;3.272;2023-05-23T06:31:50;16.40;99.90
21035;DHT22;10676;50.848;3.272;2023-05-23T06:34:15;16.30;99.90
21035;DHT22;10676;50.848;3.272;2023-05-23T06:36:41;16.20;99.90
21035;DHT22;10676;50.848;3.272;2023-05-23T06:39:07;16.20;99.90
21035;DHT22;10676;50.848;3.272;2023-05-23T06:41:36;16.20;99.90
21035;DHT22;10676;50.848;3.272;2023-05-23T06:44:01;16.10;99.90
21035;DHT22;10676;50.848;3.272;2023-05-23T06:46:27;16.00;99.90
21035;DHT22;10676;50.848;3.272;2023-05-23T06:48:53;16.00;99.90
21035;DHT22;10676;50.848;3.272;2023-05-23T06:51:18;15.90;99.90
21035;DHT22;10676;50.848;3.272;2023-05-23T06:53:44;15.90;99.90
21035;DHT22;10676;50.848;3.272;2023-05-23T06:56:10;15.90;99.90
21035;DHT22;10676;50.848;3.272;2023-05-23T06:58:35;15.90;99.90
21035;DHT22;10676;50.848;3.272;2023-05-23T07:01:01;15.90;99.90
21035;DHT22;10676;50.848;3.272;2023-05-23T07:03:26;15.80;99.90
21035;DHT22;10676;50.848;3.272;2023-05-23T07:05:52;15.80;99.90
21035;DHT22;10676;50.848;3.272;2023-05-23T07:08:18;15.80;99.90
21035;DHT22;10676;50.848;3.272;2023-05-23T07:10:43;15.70;99.90
21035;DHT22;10676;50.848;3.272;2023-05-23T07:13:09;15.60;99.90
21035;DHT22;10676;50.848;3.272;2023-05-23T07:15:35;15.60;99.90
21035;DHT22;10676;50.848;3.272;2023-05-23T07:18:01;15.50;99.90
21035;DHT22;10676;50.848;3.272;2023-05-23T07:20:26;15.50;99.90
21035;DHT22;10676;50.848;3.272;2023-05-23T07:22:52;15.50;99.90
21035;DHT22;10676;50.848;3.272;2023-05-23T07:25:18;15.50;99.90
21035;DHT22;10676;50.848;3.272;2023-05-23T07:27:43;15.50;99.90
21035;DHT22;10676;50.848;3.272;2023-05-23T07:30:09;15.50;99.90
21035;DHT22;10676;50.848;3.272;2023-05-23T07:32:35;15.50;99.90
21035;DHT22;10676;50.848;3.272;2023-05-23T07:35:01;15.50;99.90
21035;DHT22;10676;50.848;3.272;2023-05-23T07:37:27;15.50;99.90
21035;DHT22;10676;50.848;3.272;2023-05-23T07:39:53;15.50;99.90
21035;DHT22;10676;50.848;3.272;2023-05-23T07:42:18;15.40;99.90
21035;DHT22;10676;50.848;3.272;2023-05-23T07:44:44;15.50;99.90
21035;DHT22;10676;50.848;3.272;2023-05-23T07:47:10;15.50;99.90
21035;DHT22;10676;50.848;3.272;2023-05-23T07:49:36;15.50;99.90
21035;DHT22;10676;50.848;3.272;2023-05-23T07:52:01;15.50;99.90
21035;DHT22;10676;50.848;3.272;2023-05-23T07:54:27;15.40;99.90
21035;DHT22;10676;50.848;3.272;2023-05-23T07:56:53;15.40;99.90
21035;DHT22;10676;50.848;3.272;2023-05-23T07:59:19;15.40;99.90
21035;DHT22;10676;50.848;3.272;2023-05-23T08:01:45;15.40;99.90
21035;DHT22;10676;50.848;3.272;2023-05-23T08:04:11;15.50;99.90
21035;DHT22;10676;50.848;3.272;2023-05-23T08:06:36;15.50;99.90
21035;DHT22;10676;50.848;3.272;2023-05-23T08:09:03;15.50;99.90
21035;DHT22;10676;50.848;3.272;2023-05-23T08:11:30;15.60;99.90
21035;DHT22;10676;50.848;3.272;2023-05-23T08:13:56;15.50;99.90
21035;DHT22;10676;50.848;3.272;2023-05-23T08:16:24;15.50;99.90
21035;DHT22;10676;50.848;3.272;2023-05-23T08:18:52;15.50;99.90
21035;DHT22;10676;50.848;3.272;2023-05-23T08:21:17;15.50;99.90
21035;DHT22;10676;50.848;3.272;2023-05-23T08:23:43;15.50;99.90
21035;DHT22;10676;50.848;3.272;2023-05-23T08:26:09;15.50;99.90
21035;DHT22;10676;50.848;3.272;2023-05-23T08:28:35;15.60;99.90
21035;DHT22;10676;50.848;3.272;2023-05-23T08:31:00;15.60;99.90
21035;DHT22;10676;50.848;3.272;2023-05-23T08:33:26;15.60;99.90
21035;DHT22;10676;50.848;3.272;2023-05-23T08:35:51;15.60;99.90
21035;DHT22;10676;50.848;3.272;2023-05-23T08:38:17;15.60;99.90
21035;DHT22;10676;50.848;3.272;2023-05-23T08:40:49;15.70;99.90
21035;DHT22;10676;50.848;3.272;2023-05-23T08:43:17;15.90;99.90
21035;DHT22;10676;50.848;3.272;2023-05-23T08:45:43;16.20;99.90
21035;DHT22;10676;50.848;3.272;2023-05-23T08:48:12;16.60;99.90
21035;DHT22;10676;50.848;3.272;2023-05-23T08:50:39;17.00;99.90
21035;DHT22;10676;50.848;3.272;2023-05-23T08:53:08;17.60;99.90
21035;DHT22;10676;50.848;3.272;2023-05-23T08:55:36;18.30;99.90
21035;DHT22;10676;50.848;3.272;2023-05-23T08:58:02;18.80;99.90
21035;DHT22;10676;50.848;3.272;2023-05-23T09:00:28;19.00;99.90
21035;DHT22;10676;50.848;3.272;2023-05-23T09:02:54;19.00;99.90
21035;DHT22;10676;50.848;3.272;2023-05-23T09:05:21;19.00;99.90
21035;DHT22;10676;50.848;3.272;2023-05-23T09:07:48;18.90;99.90
21035;DHT22;10676;50.848;3.272;2023-05-23T09:10:14;18.80;99.90
21035;DHT22;10676;50.848;3.272;2023-05-23T09:12:44;18.80;99.90
21035;DHT22;10676;50.848;3.272;2023-05-23T09:15:11;18.70;99.90
21035;DHT22;10676;50.848;3.272;2023-05-23T09:17:37;18.60;99.90
21035;DHT22;10676;50.848;3.272;2023-05-23T09:20:13;18.70;99.90
21035;DHT22;10676;50.848;3.272;2023-05-23T09:22:40;18.80;99.90
21035;DHT22;10676;50.848;3.272;2023-05-23T09:25:06;18.80;99.90
21035;DHT22;10676;50.848;3.272;2023-05-23T09:27:32;18.70;99.90
21035;DHT22;10676;50.848;3.272;2023-05-23T09:30:05;18.50;99.90
21035;DHT22;10676;50.848;3.272;2023-05-23T09:32:31;18.30;99.90
21035;DHT22;10676;50.848;3.272;2023-05-23T09:35:00;18.20;99.90
21035;DHT22;10676;50.848;3.272;2023-05-23T09:37:29;18.40;99.90
21035;DHT22;10676;50.848;3.272;2023-05-23T09:39:58;18.60;99.90
21035;DHT22;10676;50.848;3.272;2023-05-23T09:42:25;18.90;99.90
21035;DHT22;10676;50.848;3.272;2023-05-23T09:44:55;19.30;99.90
21035;DHT22;10676;50.848;3.272;2023-05-23T09:47:21;19.60;99.90
21035;DHT22;10676;50.848;3.272;2023-05-23T09:49:46;19.70;99.90
21035;DHT22;10676;50.848;3.272;2023-05-23T09:52:12;19.70;99.90
21035;DHT22;10676;50.848;3.272;2023-05-23T09:54:42;19.70;99.90
21035;DHT22;10676;50.848;3.272;2023-05-23T09:57:09;19.80;99.90
21035;DHT22;10676;50.848;3.272;2023-05-23T09:59:40;19.90;99.90
21035;DHT22;10676;50.848;3.272;2023-05-23T10:02:16;20.20;99.90
21035;DHT22;10676;50.848;3.272;2023-05-23T10:04:50;20.60;99.90
21035;DHT22;10676;50.848;3.272;2023-05-23T10:07:19;21.00;99.90
21035;DHT22;10676;50.848;3.272;2023-05-23T10:09:54;21.40;99.90
21035;DHT22;10676;50.848;3.272;2023-05-23T10:12:49;22.20;99.90
21035;DHT22;10676;50.848;3.272;2023-05-23T10:15:17;22.80;99.90
21035;DHT22;10676;50.848;3.272;2023-05-23T10:18:03;22.90;99.90
21035;DHT22;10676;50.848;3.272;2023-05-23T10:20:31;22.60;99.90
21035;DHT22;10676;50.848;3.272;2023-05-23T10:23:01;22.20;99.90
21035;DHT22;10676;50.848;3.272;2023-05-23T10:25:27;21.90;99.90
21035;DHT22;10676;50.848;3.272;2023-05-23T10:27:58;21.60;99.90
21035;DHT22;10676;50.848;3.272;2023-05-23T10:30:25;21.20;99.90
21035;DHT22;10676;50.848;3.272;2023-05-23T10:32:51;20.90;99.90
21035;DHT22;10676;50.848;3.272;2023-05-23T10:35:41;20.80;99.90
21035;DHT22;10676;50.848;3.272;2023-05-23T10:41:01;21.20;99.90
21035;DHT22;10676;50.848;3.272;2023-05-23T10:45:56;21.70;99.90
21035;DHT22;10676;50.848;3.272;2023-05-23T10:51:13;22.00;99.90
21035;DHT22;10676;50.848;3.272;2023-05-23T10:53:41;22.20;99.90
21035;DHT22;10676;50.848;3.272;2023-05-23T10:56:08;22.60;99.90
21035;DHT22;10676;50.848;3.272;2023-05-23T10:58:36;22.90;99.90
21035;DHT22;10676;50.848;3.272;2023-05-23T11:01:12;23.20;99.90
21035;DHT22;10676;50.848;3.272;2023-05-23T11:06:40;23.30;99.30
21035;DHT22;10676;50.848;3.272;2023-05-23T11:09:11;23.20;98.70
21035;DHT22;10676;50.848;3.272;2023-05-23T11:19:37;22.60;99.10
21035;DHT22;10676;50.848;3.272;2023-05-23T11:22:07;22.80;98.40
21035;DHT22;10676;50.848;3.272;2023-05-23T11:24:55;22.90;98.50
21035;DHT22;10676;50.848;3.272;2023-05-23T11:27:34;23.30;98.20
21035;DHT22;10676;50.848;3.272;2023-05-23T11:30:10;23.80;96.70
21035;DHT22;10676;50.848;3.272;2023-05-23T11:32:37;24.00;95.50
21035;DHT22;10676;50.848;3.272;2023-05-23T11:35:10;24.10;94.90
21035;DHT22;10676;50.848;3.272;2023-05-23T11:37:37;24.20;94.10
21035;DHT22;10676;50.848;3.272;2023-05-23T11:42:52;24.30;93.80
21035;DHT22;10676;50.848;3.272;2023-05-23T11:45:19;24.50;92.50
21035;DHT22;10676;50.848;3.272;2023-05-23T11:47:44;24.50;92.40
21035;DHT22;10676;50.848;3.272;2023-05-23T11:50:10;24.60;91.90
21035;DHT22;10676;50.848;3.272;2023-05-23T11:52:36;24.90;91.70
21035;DHT22;10676;50.848;3.272;2023-05-23T11:55:02;25.20;91.40
21035;DHT22;10676;50.848;3.272;2023-05-23T11:57:28;25.30;90.90
21035;DHT22;10676;50.848;3.272;2023-05-23T11:59:54;25.20;90.60
21035;DHT22;10676;50.848;3.272;2023-05-23T12:02:20;24.90;90.40
21035;DHT22;10676;50.848;3.272;2023-05-23T12:04:49;24.80;90.50
21035;DHT22;10676;50.848;3.272;2023-05-23T12:07:18;24.90;90.00
21035;DHT22;10676;50.848;3.272;2023-05-23T12:09:44;25.20;90.00
21035;DHT22;10676;50.848;3.272;2023-05-23T12:12:11;25.50;90.00
21035;DHT22;10676;50.848;3.272;2023-05-23T12:14:37;25.70;88.50
21035;DHT22;10676;50.848;3.272;2023-05-23T12:17:12;25.60;87.90
21035;DHT22;10676;50.848;3.272;2023-05-23T12:19:38;25.60;87.00
21035;DHT22;10676;50.848;3.272;2023-05-23T12:22:05;25.50;87.70
21035;DHT22;10676;50.848;3.272;2023-05-23T12:24:34;25.30;87.60
21035;DHT22;10676;50.848;3.272;2023-05-23T12:27:01;25.10;87.50
21035;DHT22;10676;50.848;3.272;2023-05-23T12:29:36;24.80;86.90
21035;DHT22;10676;50.848;3.272;2023-05-23T12:32:05;24.60;89.00
21035;DHT22;10676;50.848;3.272;2023-05-23T12:34:31;24.60;88.00
21035;DHT22;10676;50.848;3.272;2023-05-23T12:36:58;24.70;89.00
21035;DHT22;10676;50.848;3.272;2023-05-23T12:39:25;24.80;87.90
21035;DHT22;10676;50.848;3.272;2023-05-23T12:41:55;25.00;86.50
21035;DHT22;10676;50.848;3.272;2023-05-23T12:44:31;25.30;86.20
21035;DHT22;10676;50.848;3.272;2023-05-23T12:46:56;25.60;85.30
21035;DHT22;10676;50.848;3.272;2023-05-23T12:49:23;25.90;83.90
21035;DHT22;10676;50.848;3.272;2023-05-23T12:51:49;26.10;83.40
21035;DHT22;10676;50.848;3.272;2023-05-23T12:54:15;26.20;82.50
21035;DHT22;10676;50.848;3.272;2023-05-23T12:56:41;26.20;82.60
21035;DHT22;10676;50.848;3.272;2023-05-23T12:59:07;26.20;81.50
21035;DHT22;10676;50.848;3.272;2023-05-23T13:01:33;26.20;80.50
21035;DHT22;10676;50.848;3.272;2023-05-23T13:04:00;26.00;81.30
21035;DHT22;10676;50.848;3.272;2023-05-23T13:06:26;25.90;81.00
21035;DHT22;10676;50.848;3.272;2023-05-23T13:08:52;25.90;80.50
21035;DHT22;10676;50.848;3.272;2023-05-23T13:11:19;26.00;80.00
21035;DHT22;10676;50.848;3.272;2023-05-23T13:13:47;26.00;80.50
21035;DHT22;10676;50.848;3.272;2023-05-23T13:16:13;26.00;81.30
21035;DHT22;10676;50.848;3.272;2023-05-23T13:18:38;26.10;81.50
21035;DHT22;10676;50.848;3.272;2023-05-23T13:21:04;26.20;80.80
21035;DHT22;10676;50.848;3.272;2023-05-23T13:23:30;26.20;80.10
21035;DHT22;10676;50.848;3.272;2023-05-23T13:25:57;26.20;79.10
21035;DHT22;10676;50.848;3.272;2023-05-23T13:28:23;26.20;78.80
21035;DHT22;10676;50.848;3.272;2023-05-23T13:30:49;26.10;79.00
21035;DHT22;10676;50.848;3.272;2023-05-23T13:33:16;25.90;80.00
21035;DHT22;10676;50.848;3.272;2023-05-23T13:35:41;26.00;79.90
21035;DHT22;10676;50.848;3.272;2023-05-23T13:38:08;26.20;80.20
21035;DHT22;10676;50.848;3.272;2023-05-23T13:40:34;26.40;78.20
21035;DHT22;10676;50.848;3.272;2023-05-23T13:43:00;26.30;78.10
21035;DHT22;10676;50.848;3.272;2023-05-23T13:45:25;26.30;77.70
21035;DHT22;10676;50.848;3.272;2023-05-23T13:47:51;26.40;77.60
21035;DHT22;10676;50.848;3.272;2023-05-23T13:50:17;26.50;77.60
21035;DHT22;10676;50.848;3.272;2023-05-23T13:52:43;26.50;77.00
21035;DHT22;10676;50.848;3.272;2023-05-23T13:55:09;26.30;77.50
21035;DHT22;10676;50.848;3.272;2023-05-23T13:57:35;26.00;76.70
21035;DHT22;10676;50.848;3.272;2023-05-23T14:00:01;25.60;77.30
21035;DHT22;10676;50.848;3.272;2023-05-23T14:02:28;25.20;78.60
21035;DHT22;10676;50.848;3.272;2023-05-23T14:04:56;24.90;78.70
21035;DHT22;10676;50.848;3.272;2023-05-23T14:07:22;24.70;79.60
21035;DHT22;10676;50.848;3.272;2023-05-23T14:09:48;24.50;80.70
21035;DHT22;10676;50.848;3.272;2023-05-23T14:12:13;24.40;80.80
21035;DHT22;10676;50.848;3.272;2023-05-23T14:14:39;24.40;80.60
21035;DHT22;10676;50.848;3.272;2023-05-23T14:17:05;24.50;80.30
21035;DHT22;10676;50.848;3.272;2023-05-23T14:19:31;24.60;78.90
21035;DHT22;10676;50.848;3.272;2023-05-23T14:21:56;24.60;79.40
21035;DHT22;10676;50.848;3.272;2023-05-23T14:24:22;24.60;79.20
21035;DHT22;10676;50.848;3.272;2023-05-23T14:26:47;24.70;79.30
21035;DHT22;10676;50.848;3.272;2023-05-23T14:29:14;24.80;78.10
21035;DHT22;10676;50.848;3.272;2023-05-23T14:31:40;24.70;78.70
21035;DHT22;10676;50.848;3.272;2023-05-23T14:34:06;24.60;78.20
21035;DHT22;10676;50.848;3.272;2023-05-23T14:36:31;24.50;78.40
21035;DHT22;10676;50.848;3.272;2023-05-23T14:38:57;24.40;78.90
21035;DHT22;10676;50.848;3.272;2023-05-23T14:41:23;24.40;77.80
21035;DHT22;10676;50.848;3.272;2023-05-23T14:43:49;24.30;76.90
21035;DHT22;10676;50.848;3.272;2023-05-23T14:46:16;24.10;77.00
21035;DHT22;10676;50.848;3.272;2023-05-23T14:48:42;23.90;77.50
21035;DHT22;10676;50.848;3.272;2023-05-23T14:51:07;23.90;78.50
21035;DHT22;10676;50.848;3.272;2023-05-23T14:53:34;23.80;79.60
21035;DHT22;10676;50.848;3.272;2023-05-23T14:56:00;23.80;80.00
21035;DHT22;10676;50.848;3.272;2023-05-23T14:58:26;23.80;80.30
21035;DHT22;10676;50.848;3.272;2023-05-23T15:00:51;23.80;79.90
21035;DHT22;10676;50.848;3.272;2023-05-23T15:03:17;23.80;80.00
21035;DHT22;10676;50.848;3.272;2023-05-23T15:05:43;23.80;80.10
21035;DHT22;10676;50.848;3.272;2023-05-23T15:08:10;23.70;79.60
21035;DHT22;10676;50.848;3.272;2023-05-23T15:10:36;23.60;80.10
21035;DHT22;10676;50.848;3.272;2023-05-23T15:13:02;23.50;80.10
21035;DHT22;10676;50.848;3.272;2023-05-23T15:15:28;23.30;80.90
21035;DHT22;10676;50.848;3.272;2023-05-23T15:18:04;23.20;81.20
21035;DHT22;10676;50.848;3.272;2023-05-23T15:20:33;23.20;80.90
21035;DHT22;10676;50.848;3.272;2023-05-23T15:22:58;23.20;81.40
21035;DHT22;10676;50.848;3.272;2023-05-23T15:25:24;23.20;81.20
21035;DHT22;10676;50.848;3.272;2023-05-23T15:27:54;23.10;81.20
21035;DHT22;10676;50.848;3.272;2023-05-23T15:30:19;23.00;81.20
21035;DHT22;10676;50.848;3.272;2023-05-23T15:32:46;22.70;82.30
21035;DHT22;10676;50.848;3.272;2023-05-23T15:35:12;22.50;83.40
21035;DHT22;10676;50.848;3.272;2023-05-23T15:37:39;22.40;83.40
21035;DHT22;10676;50.848;3.272;2023-05-23T15:40:05;22.30;84.10
21035;DHT22;10676;50.848;3.272;2023-05-23T15:42:31;22.30;84.90
21035;DHT22;10676;50.848;3.272;2023-05-23T15:44:57;22.40;84.10
21035;DHT22;10676;50.848;3.272;2023-05-23T15:47:23;22.40;83.40
21035;DHT22;10676;50.848;3.272;2023-05-23T15:49:49;22.40;83.70
21035;DHT22;10676;50.848;3.272;2023-05-23T15:52:14;22.40;83.40
21035;DHT22;10676;50.848;3.272;2023-05-23T15:54:40;22.40;84.20
21035;DHT22;10676;50.848;3.272;2023-05-23T15:57:06;22.30;84.50